Time;durP1;ratioP1;P1;durP2;ratioP2;P2;SDS_P1;SDS_P2;PMS_P1;PMS_P2;Temp;Humidity;BMP_temperature;BMP_pressure;BME280_temperature;BME280_humidity;BME280_pressure;Samples;Min_cycle;Max_cycle;Signal;HPM_P1;HPM_P2
2023/05/19 00:01:58;;;;;;;1.53;1.43;;;20.10;41.90;;;;;;5003375;28;20211;-74
2023/05/19 00:04:25;;;;;;;1.60;1.50;;;20.10;41.90;;;;;;5025959;28;20925;-74
2023/05/19 00:06:53;;;;;;;1.40;1.30;;;20.10;41.90;;;;;;5019787;28;20427;-74
2023/05/19 00:09:19;;;;;;;1.33;1.23;;;20.10;41.90;;;;;;5019496;28;20426;-73
2023/05/19 00:11:45;;;;;;;1.70;1.60;;;20.10;41.90;;;;;;5029546;28;20433;-74
2023/05/19 00:14:11;;;;;;;1.57;1.47;;;20.10;41.90;;;;;;5024082;28;20501;-74
2023/05/19 00:16:37;;;;;;;3.50;1.60;;;20.10;41.90;;;;;;5026700;28;20456;-74
2023/05/19 00:19:05;;;;;;;1.73;1.50;;;20.10;41.90;;;;;;5025331;28;20509;-74
2023/05/19 00:21:31;;;;;;;1.63;1.53;;;20.10;41.90;;;;;;5008392;28;20947;-73
2023/05/19 00:23:57;;;;;;;1.67;1.50;;;20.10;42.00;;;;;;5012161;28;20423;-73
2023/05/19 00:26:25;;;;;;;1.60;1.50;;;20.10;41.90;;;;;;5020263;28;20454;-72
2023/05/19 00:28:51;;;;;;;1.50;1.40;;;20.10;42.00;;;;;;5007993;28;20745;-73
2023/05/19 00:31:17;;;;;;;1.57;1.47;;;20.10;42.00;;;;;;5017730;28;20959;-74
2023/05/19 00:33:42;;;;;;;1.57;1.47;;;20.10;42.10;;;;;;5006967;28;20436;-74
2023/05/19 00:36:08;;;;;;;1.50;1.40;;;20.10;42.00;;;;;;5004708;28;20670;-73
2023/05/19 00:38:35;;;;;;;1.70;1.60;;;20.10;42.00;;;;;;5024330;28;20743;-74
2023/05/19 00:41:04;;;;;;;1.60;1.50;;;20.10;42.00;;;;;;5011937;28;20223;-74
2023/05/19 00:43:30;;;;;;;2.90;1.60;;;20.10;42.00;;;;;;5019074;28;20556;-74
2023/05/19 00:45:56;;;;;;;1.43;1.33;;;20.10;42.00;;;;;;5011771;28;20949;-73
2023/05/19 00:48:24;;;;;;;1.67;1.57;;;20.10;42.00;;;;;;5021579;28;20298;-74
2023/05/19 00:50:51;;;;;;;1.50;1.40;;;20.10;42.10;;;;;;5026464;28;20440;-73
2023/05/19 00:53:18;;;;;;;2.13;1.90;;;20.10;42.10;;;;;;5029989;28;20448;-73
2023/05/19 00:55:45;;;;;;;2.97;1.50;;;20.10;42.10;;;;;;5023573;28;20919;-74
2023/05/19 00:58:11;;;;;;;1.70;1.60;;;20.10;42.10;;;;;;5011575;28;20490;-74
2023/05/19 01:00:38;;;;;;;1.63;1.53;;;20.10;42.10;;;;;;5016129;28;20820;-74
2023/05/19 01:03:10;;;;;;;1.60;1.50;;;20.10;42.10;;;;;;5014899;28;20416;-74
2023/05/19 01:05:46;;;;;;;1.50;1.40;;;20.10;42.10;;;;;;5018168;28;20439;-74
2023/05/19 01:08:12;;;;;;;1.67;1.57;;;20.00;42.00;;;;;;5024840;28;20820;-74
2023/05/19 01:10:37;;;;;;;1.50;1.40;;;20.10;42.10;;;;;;5005918;28;20467;-73
2023/05/19 01:13:04;;;;;;;1.60;1.50;;;20.10;42.10;;;;;;5018280;28;20291;-74
2023/05/19 01:15:35;;;;;;;1.70;1.57;;;20.10;42.20;;;;;;5009363;28;20245;-74
2023/05/19 01:18:17;;;;;;;1.63;1.53;;;20.00;42.10;;;;;;5016521;28;20423;-74
2023/05/19 01:20:54;;;;;;;1.50;1.40;;;20.10;42.10;;;;;;5023060;28;20451;-74
2023/05/19 01:23:41;;;;;;;1.43;1.33;;;20.10;42.10;;;;;;5018512;28;20450;-74
2023/05/19 01:26:34;;;;;;;1.33;1.23;;;20.10;42.10;;;;;;5030918;28;20836;-73
2023/05/19 01:29:29;;;;;;;1.47;1.37;;;20.10;42.20;;;;;;5016383;28;20422;-74
2023/05/19 01:31:59;;;;;;;1.60;1.50;;;20.10;42.10;;;;;;5017325;28;20445;-73
2023/05/19 01:34:26;;;;;;;1.40;1.30;;;20.00;42.10;;;;;;5026874;28;20797;-74
2023/05/19 01:36:53;;;;;;;1.80;1.70;;;20.00;42.10;;;;;;5007596;28;20444;-74
2023/05/19 01:39:19;;;;;;;1.63;1.53;;;20.00;42.20;;;;;;5025719;28;20463;-73
2023/05/19 01:41:46;;;;;;;1.70;1.60;;;20.10;42.20;;;;;;5028545;28;20432;-74
2023/05/19 01:44:12;;;;;;;1.80;1.70;;;20.10;42.20;;;;;;5023918;28;20298;-74
2023/05/19 01:46:38;;;;;;;1.67;1.57;;;20.00;42.20;;;;;;5017499;28;20446;-74
2023/05/19 01:49:05;;;;;;;1.50;1.40;;;20.00;42.90;;;;;;4989889;28;20463;-74
2023/05/19 01:51:31;;;;;;;1.50;1.40;;;20.00;42.20;;;;;;5030037;28;20290;-74
2023/05/19 01:53:56;;;;;;;1.60;1.50;;;20.00;42.20;;;;;;5035828;28;20837;-73
2023/05/19 01:56:41;;;;;;;1.40;1.30;;;20.00;42.20;;;;;;5032622;28;20222;-73
2023/05/19 01:59:21;;;;;;;1.40;1.30;;;20.00;42.20;;;;;;5025219;28;20238;-73
2023/05/19 02:01:56;;;;;;;1.67;1.57;;;20.00;42.20;;;;;;5019532;28;20435;-73
2023/05/19 02:04:50;;;;;;;1.60;1.50;;;20.00;42.30;;;;;;5015318;28;20447;-73
2023/05/19 02:07:26;;;;;;;1.50;1.40;;;20.00;42.20;;;;;;5026220;28;20439;-74
2023/05/19 02:10:03;;;;;;;1.30;1.20;;;20.00;42.20;;;;;;5001646;28;20518;-74
2023/05/19 02:12:34;;;;;;;1.60;1.50;;;20.00;42.20;;;;;;5020227;28;20486;-74
2023/05/19 02:15:20;;;;;;;1.80;1.67;;;20.00;42.30;;;;;;5010174;28;20452;-73
2023/05/19 02:17:50;;;;;;;1.50;1.40;;;20.00;42.20;;;;;;5003399;28;20426;-73
2023/05/19 02:20:16;;;;;;;1.50;1.40;;;20.00;42.30;;;;;;5006402;28;20428;-73
2023/05/19 02:22:43;;;;;;;1.50;1.40;;;20.00;42.30;;;;;;5011740;28;20432;-73
2023/05/19 02:25:09;;;;;;;1.53;1.43;;;20.00;42.30;;;;;;5010488;28;20445;-74
2023/05/19 02:27:36;;;;;;;1.50;1.40;;;20.00;42.20;;;;;;5017096;28;20511;-73
2023/05/19 02:30:03;;;;;;;1.87;1.77;;;20.00;43.10;;;;;;5015898;28;20965;-74
2023/05/19 02:32:29;;;;;;;1.40;1.30;;;20.00;42.30;;;;;;5002379;28;20952;-73
2023/05/19 02:34:55;;;;;;;1.50;1.40;;;20.00;42.30;;;;;;5021896;28;20422;-73
2023/05/19 02:37:22;;;;;;;1.50;1.40;;;20.00;42.30;;;;;;5018293;28;20916;-73
2023/05/19 02:39:48;;;;;;;1.60;1.50;;;20.00;42.30;;;;;;5004509;28;20242;-73
2023/05/19 02:42:16;;;;;;;1.70;1.60;;;20.00;42.30;;;;;;5006271;28;20938;-73
2023/05/19 02:44:42;;;;;;;1.50;1.40;;;20.00;42.30;;;;;;5013625;28;20230;-73
2023/05/19 02:47:07;;;;;;;1.30;1.20;;;20.00;42.40;;;;;;5025740;28;20536;-73
2023/05/19 02:49:36;;;;;;;1.40;1.30;;;20.00;42.30;;;;;;4995531;28;20717;-73
2023/05/19 02:52:03;;;;;;;1.50;1.40;;;20.00;42.40;;;;;;5009186;28;20302;-75
2023/05/19 02:54:33;;;;;;;1.50;1.40;;;20.00;42.30;;;;;;5023674;28;20778;-74
2023/05/19 02:56:59;;;;;;;1.70;1.60;;;20.00;42.30;;;;;;5029903;28;20849;-74
2023/05/19 02:59:24;;;;;;;1.20;1.20;;;20.00;42.30;;;;;;5037891;28;20477;-74
2023/05/19 03:01:54;;;;;;;1.50;1.40;;;20.00;42.40;;;;;;5017848;28;20531;-74
2023/05/19 03:04:20;;;;;;;1.60;1.50;;;20.00;42.40;;;;;;5021200;28;20668;-73
2023/05/19 03:06:45;;;;;;;1.40;1.30;;;20.00;42.40;;;;;;5033283;28;20413;-74
2023/05/19 03:09:12;;;;;;;1.50;1.40;;;20.00;42.40;;;;;;5041416;28;20580;-74
2023/05/19 03:11:38;;;;;;;1.50;1.40;;;20.00;42.40;;;;;;5031104;28;20295;-74
2023/05/19 03:14:04;;;;;;;1.70;1.60;;;20.00;42.40;;;;;;5025856;28;20465;-73
2023/05/19 03:16:30;;;;;;;1.97;1.87;;;20.00;42.40;;;;;;5014851;28;20226;-73
2023/05/19 03:18:56;;;;;;;1.60;1.50;;;20.00;42.40;;;;;;5025686;28;20310;-73
2023/05/19 03:21:21;;;;;;;1.40;1.30;;;20.00;42.40;;;;;;5032063;28;20258;-73
2023/05/19 03:23:47;;;;;;;1.50;1.40;;;20.00;42.40;;;;;;5040079;28;20641;-73
2023/05/19 03:26:12;;;;;;;1.50;1.40;;;20.00;42.40;;;;;;5028032;28;20236;-73
2023/05/19 03:28:38;;;;;;;1.73;1.30;;;20.00;42.50;;;;;;5027810;28;20254;-74
2023/05/19 03:31:03;;;;;;;1.40;1.30;;;20.00;42.40;;;;;;5031615;28;20249;-73
2023/05/19 03:33:29;;;;;;;2.07;1.73;;;20.00;42.40;;;;;;5022497;28;20261;-74
2023/05/19 03:35:57;;;;;;;1.90;1.80;;;20.00;42.40;;;;;;5028994;28;20693;-73
2023/05/19 03:38:24;;;;;;;1.50;1.40;;;20.00;42.40;;;;;;5016770;28;20257;-73
2023/05/19 03:40:49;;;;;;;1.50;1.40;;;20.00;42.40;;;;;;5031782;28;20989;-73
2023/05/19 03:43:15;;;;;;;1.40;1.30;;;20.00;42.40;;;;;;5031270;28;20219;-73
2023/05/19 03:45:42;;;;;;;1.60;1.50;;;20.00;42.40;;;;;;5027772;28;20724;-73
2023/05/19 03:48:07;;;;;;;1.40;1.30;;;20.00;42.50;;;;;;5016273;28;20250;-74
2023/05/19 03:50:33;;;;;;;1.50;1.40;;;20.00;42.40;;;;;;5024028;28;20980;-74
2023/05/19 03:52:59;;;;;;;1.60;1.50;;;20.00;42.40;;;;;;4983210;28;20216;-74
2023/05/19 03:55:25;;;;;;;1.50;1.40;;;20.00;42.50;;;;;;5009959;28;20680;-74
2023/05/19 03:57:51;;;;;;;1.67;1.57;;;20.00;42.50;;;;;;5022099;28;20984;-74
2023/05/19 04:00:17;;;;;;;1.63;1.50;;;20.00;42.50;;;;;;5032277;28;20517;-73
2023/05/19 04:02:43;;;;;;;1.90;1.80;;;20.00;42.40;;;;;;4988033;28;20210;-73
2023/05/19 04:05:09;;;;;;;1.70;1.60;;;20.00;42.50;;;;;;4982464;28;20951;-72
2023/05/19 04:07:34;;;;;;;1.70;1.60;;;20.00;42.50;;;;;;5001038;28;20222;-72
2023/05/19 04:10:03;;;;;;;1.73;1.63;;;20.00;42.50;;;;;;5016511;28;20516;-72
2023/05/19 04:12:29;;;;;;;1.53;1.43;;;20.00;42.50;;;;;;5003031;28;20246;-72
2023/05/19 04:14:54;;;;;;;4.20;1.50;;;20.00;42.50;;;;;;5021262;28;20805;-75
2023/05/19 04:17:22;;;;;;;1.70;1.60;;;20.00;42.50;;;;;;4992953;28;20228;-74
2023/05/19 04:19:48;;;;;;;1.60;1.50;;;20.00;42.50;;;;;;5019819;28;20234;-74
2023/05/19 04:22:13;;;;;;;5.30;2.00;;;20.00;42.50;;;;;;5026048;28;20431;-75
2023/05/19 04:24:39;;;;;;;1.80;1.70;;;20.00;42.40;;;;;;5023927;28;20697;-74
2023/05/19 04:27:10;;;;;;;1.50;1.40;;;20.00;42.30;;;;;;5019022;28;20233;-74
2023/05/19 04:29:36;;;;;;;1.60;1.50;;;20.00;42.20;;;;;;5020900;28;20697;-74
2023/05/19 04:32:06;;;;;;;1.70;1.60;;;20.00;42.20;;;;;;5028061;28;20455;-74
2023/05/19 04:34:35;;;;;;;1.60;1.50;;;20.00;42.30;;;;;;5033526;28;20434;-75
2023/05/19 04:37:01;;;;;;;1.63;1.53;;;20.00;42.30;;;;;;5020454;28;20416;-74
2023/05/19 04:39:27;;;;;;;1.40;1.30;;;20.00;42.30;;;;;;4999150;28;20470;-75
2023/05/19 04:41:55;;;;;;;1.70;1.60;;;20.00;42.40;;;;;;5030294;28;20968;-74
2023/05/19 04:44:21;;;;;;;1.70;1.60;;;20.00;42.40;;;;;;5026435;28;20306;-75
2023/05/19 04:46:46;;;;;;;1.50;1.40;;;20.00;42.40;;;;;;5035954;28;20527;-75
2023/05/19 04:49:13;;;;;;;1.70;1.60;;;20.00;42.40;;;;;;5020922;28;20677;-74
2023/05/19 04:51:40;;;;;;;1.50;1.40;;;20.00;42.40;;;;;;5022745;28;20261;-75
2023/05/19 04:54:06;;;;;;;1.50;1.40;;;20.00;42.50;;;;;;5029009;28;20418;-75
2023/05/19 04:56:32;;;;;;;1.70;1.60;;;20.00;42.40;;;;;;5032281;28;20949;-74
2023/05/19 04:58:58;;;;;;;1.70;1.60;;;20.00;42.40;;;;;;5028089;28;20464;-75
2023/05/19 05:01:24;;;;;;;1.43;1.33;;;20.00;42.50;;;;;;5003185;28;20243;-75
2023/05/19 05:03:53;;;;;;;1.63;1.53;;;20.00;42.50;;;;;;5012733;28;20315;-74
2023/05/19 05:06:22;;;;;;;1.80;1.70;;;20.00;42.40;;;;;;5010087;28;20527;-74
2023/05/19 05:08:48;;;;;;;2.03;1.93;;;20.00;42.40;;;;;;5026926;28;20428;-75
2023/05/19 05:11:14;;;;;;;1.53;1.43;;;20.00;42.40;;;;;;5027385;28;20492;-74
2023/05/19 05:13:40;;;;;;;1.60;1.50;;;20.00;42.40;;;;;;5004832;28;20222;-75
2023/05/19 05:16:07;;;;;;;1.87;1.77;;;20.00;42.40;;;;;;5014563;28;20416;-74
2023/05/19 05:18:33;;;;;;;1.73;1.63;;;20.00;42.40;;;;;;5027494;28;20449;-75
2023/05/19 05:20:59;;;;;;;1.70;1.60;;;20.00;42.40;;;;;;5014267;28;20423;-75
2023/05/19 05:23:26;;;;;;;1.50;1.40;;;20.00;42.40;;;;;;5029349;28;20422;-75
2023/05/19 05:25:51;;;;;;;1.43;1.33;;;20.00;42.40;;;;;;5036043;28;20785;-74
2023/05/19 05:28:17;;;;;;;1.93;1.50;;;20.00;42.40;;;;;;5009213;28;20417;-74
2023/05/19 05:30:43;;;;;;;1.63;1.53;;;20.00;42.40;;;;;;5033666;28;20214;-76
2023/05/19 05:33:10;;;;;;;1.67;1.57;;;20.00;42.40;;;;;;5013596;28;20679;-77
2023/05/19 05:35:36;;;;;;;1.60;1.50;;;20.10;42.50;;;;;;5017599;28;20425;-75
2023/05/19 05:38:01;;;;;;;1.50;1.40;;;20.00;42.40;;;;;;5005816;28;20719;-74
2023/05/19 05:40:27;;;;;;;1.60;1.50;;;20.00;42.40;;;;;;5005924;28;20487;-74
2023/05/19 05:42:54;;;;;;;1.90;1.60;;;20.00;42.40;;;;;;5006047;28;20303;-74
2023/05/19 05:45:26;;;;;;;2.00;1.80;;;20.00;42.40;;;;;;5026730;28;20273;-74
2023/05/19 05:47:52;;;;;;;1.53;1.43;;;20.00;42.40;;;;;;5030456;28;20913;-74
2023/05/19 05:50:18;;;;;;;1.63;1.53;;;20.00;42.40;;;;;;5029885;28;20489;-75
2023/05/19 05:52:46;;;;;;;1.40;1.30;;;20.00;42.40;;;;;;5023215;28;20307;-75
2023/05/19 05:55:12;;;;;;;1.70;1.60;;;20.00;42.50;;;;;;5008385;28;20219;-75
2023/05/19 05:57:40;;;;;;;1.60;1.50;;;20.00;42.40;;;;;;5022018;28;20847;-74
2023/05/19 06:00:14;;;;;;;1.50;1.40;;;20.00;42.40;;;;;;5011152;28;20490;-74
2023/05/19 06:02:42;;;;;;;1.50;1.40;;;20.00;42.40;;;;;;5024794;28;20795;-74
2023/05/19 06:05:11;;;;;;;1.60;1.50;;;20.00;42.40;;;;;;5031497;28;20459;-73
2023/05/19 06:07:37;;;;;;;1.47;1.37;;;20.00;42.40;;;;;;5008823;28;21000;-74
2023/05/19 06:10:03;;;;;;;1.70;1.60;;;20.10;42.50;;;;;;5009921;28;20453;-74
2023/05/19 06:12:29;;;;;;;1.60;1.50;;;20.00;42.40;;;;;;5008172;28;20444;-74
2023/05/19 06:14:54;;;;;;;1.43;1.33;;;20.10;42.50;;;;;;5025127;28;21085;-73
2023/05/19 06:17:20;;;;;;;1.63;1.50;;;20.00;42.40;;;;;;5018164;28;20310;-74
2023/05/19 06:19:45;;;;;;;1.87;1.70;;;20.00;42.40;;;;;;5016743;28;20712;-73
2023/05/19 06:22:11;;;;;;;1.80;1.40;;;20.00;42.40;;;;;;5021699;28;20220;-76
2023/05/19 06:24:36;;;;;;;1.60;1.50;;;20.00;42.40;;;;;;5014546;28;20234;-72
2023/05/19 06:27:02;;;;;;;1.50;1.40;;;20.00;42.40;;;;;;5014480;28;20559;-73
2023/05/19 06:29:28;;;;;;;1.70;1.60;;;20.00;42.30;;;;;;5002068;28;20282;-73
2023/05/19 06:31:54;;;;;;;2.60;1.30;;;20.10;42.50;;;;;;5006839;28;20445;-72
2023/05/19 06:34:22;;;;;;;2.80;1.70;;;20.10;42.50;;;;;;5021654;28;20223;-72
2023/05/19 06:36:48;;;;;;;1.57;1.47;;;20.10;42.40;;;;;;5024197;28;20227;-74
2023/05/19 06:39:13;;;;;;;1.80;1.70;;;20.10;43.10;;;;;;5000162;28;20968;-74
2023/05/19 06:41:39;;;;;;;1.60;1.50;;;20.10;42.40;;;;;;5022592;28;20285;-72
2023/05/19 06:44:06;;;;;;;2.73;1.57;;;20.10;42.40;;;;;;5007136;28;20227;-71
2023/05/19 06:46:32;;;;;;;1.80;1.70;;;20.10;42.40;;;;;;5005444;28;20230;-75
2023/05/19 06:48:58;;;;;;;1.67;1.57;;;20.10;42.30;;;;;;4986917;28;21340;-78
2023/05/19 06:51:23;;;;;;;1.50;1.40;;;20.00;42.30;;;;;;5008130;28;20548;-73
2023/05/19 06:53:49;;;;;;;1.97;1.77;;;20.00;42.30;;;;;;5011240;28;20257;-72
2023/05/19 06:56:15;;;;;;;1.40;1.30;;;20.10;42.40;;;;;;4991018;28;20227;-77
2023/05/19 06:58:41;;;;;;;1.77;1.67;;;20.10;42.30;;;;;;5008238;28;20261;-74
2023/05/19 07:01:07;;;;;;;1.63;1.53;;;20.00;42.30;;;;;;4996591;28;20445;-73
2023/05/19 07:03:32;;;;;;;1.50;1.40;;;20.10;42.40;;;;;;4999080;28;20471;-74
2023/05/19 07:05:58;;;;;;;1.53;1.43;;;20.10;42.40;;;;;;5008957;28;20222;-71
2023/05/19 07:08:23;;;;;;;1.60;1.50;;;20.10;42.30;;;;;;4997169;28;20314;-72
2023/05/19 07:10:49;;;;;;;1.83;1.73;;;20.10;42.30;;;;;;5001105;28;20306;-73
2023/05/19 07:13:15;;;;;;;1.83;1.70;;;20.10;42.30;;;;;;5003865;28;20227;-75
2023/05/19 07:15:40;;;;;;;2.70;1.40;;;20.10;42.30;;;;;;4992101;28;20301;-73
2023/05/19 07:18:06;;;;;;;1.60;1.50;;;20.10;42.30;;;;;;5002684;28;20262;-73
2023/05/19 07:20:31;;;;;;;2.27;1.80;;;20.00;42.30;;;;;;5001443;28;20214;-73
2023/05/19 07:22:57;;;;;;;1.50;1.40;;;20.10;42.30;;;;;;4998389;28;20227;-72
2023/05/19 07:25:22;;;;;;;2.00;1.83;;;20.10;42.30;;;;;;5013383;28;20262;-72
2023/05/19 07:27:48;;;;;;;1.50;1.40;;;20.10;42.30;;;;;;5009907;28;20243;-72
2023/05/19 07:30:16;;;;;;;1.60;1.50;;;20.10;42.30;;;;;;5011493;28;20218;-73
2023/05/19 07:32:41;;;;;;;4.03;1.80;;;20.10;42.20;;;;;;4995680;28;20230;-72
2023/05/19 07:35:07;;;;;;;1.40;1.30;;;20.10;42.30;;;;;;4999494;28;20426;-72
2023/05/19 07:37:32;;;;;;;1.80;1.70;;;20.10;42.30;;;;;;5012303;28;20351;-72
2023/05/19 07:39:58;;;;;;;1.50;1.40;;;20.10;42.20;;;;;;5004202;28;20237;-72
2023/05/19 07:42:23;;;;;;;1.93;1.60;;;20.10;42.30;;;;;;5015307;28;20297;-72
2023/05/19 07:44:49;;;;;;;1.87;1.70;;;20.00;42.20;;;;;;5006651;28;20230;-72
2023/05/19 07:47:15;;;;;;;3.63;1.87;;;20.10;42.20;;;;;;5012035;28;20230;-72
2023/05/19 07:49:40;;;;;;;2.20;1.40;;;20.10;42.20;;;;;;5023614;28;20231;-72
2023/05/19 07:52:06;;;;;;;1.90;1.80;;;20.10;42.20;;;;;;5010679;28;20229;-72
2023/05/19 07:54:31;;;;;;;1.80;1.70;;;20.00;42.10;;;;;;5009748;28;20246;-72
2023/05/19 07:56:57;;;;;;;1.57;1.47;;;20.10;42.20;;;;;;5016401;28;20246;-72
2023/05/19 07:59:23;;;;;;;1.70;1.60;;;20.10;42.20;;;;;;4999912;28;20234;-72
2023/05/19 08:01:48;;;;;;;1.87;1.77;;;20.10;42.20;;;;;;5006966;28;20694;-73
2023/05/19 08:04:14;;;;;;;2.00;1.83;;;20.10;42.20;;;;;;4991261;28;20252;-72
2023/05/19 08:06:41;;;;;;;1.60;1.50;;;20.10;42.20;;;;;;5001596;28;20224;-71
2023/05/19 08:09:07;;;;;;;2.03;1.70;;;20.10;42.20;;;;;;5011879;28;20212;-71
2023/05/19 08:11:32;;;;;;;2.23;1.77;;;20.10;42.10;;;;;;5012082;28;20476;-72
2023/05/19 08:13:58;;;;;;;3.30;1.73;;;20.10;42.10;;;;;;4996626;28;20322;-71
2023/05/19 08:16:23;;;;;;;1.53;1.43;;;20.10;42.20;;;;;;5031567;28;20305;-71
2023/05/19 08:18:49;;;;;;;1.57;1.47;;;20.10;42.10;;;;;;5011787;28;20228;-72
2023/05/19 08:21:14;;;;;;;1.50;1.40;;;20.10;42.20;;;;;;5008209;28;20251;-72
2023/05/19 08:23:40;;;;;;;1.70;1.60;;;20.10;42.10;;;;;;5012412;28;20329;-71
2023/05/19 08:26:06;;;;;;;1.70;1.57;;;20.10;42.10;;;;;;5006854;28;20231;-72
2023/05/19 08:28:31;;;;;;;1.63;1.53;;;20.10;42.10;;;;;;5008418;28;20234;-71
2023/05/19 08:30:57;;;;;;;2.17;1.50;;;20.10;42.10;;;;;;5014052;28;20224;-72
2023/05/19 08:33:22;;;;;;;1.50;1.40;;;20.10;42.10;;;;;;5013383;28;20322;-72
2023/05/19 08:35:48;;;;;;;2.40;1.73;;;20.10;42.00;;;;;;5010237;28;20227;-72
2023/05/19 08:38:13;;;;;;;1.60;1.50;;;20.10;42.00;;;;;;5010662;28;20234;-72
2023/05/19 08:40:45;;;;;;;2.10;1.50;;;20.10;42.00;;;;;;5008599;28;20227;-71
2023/05/19 08:43:10;;;;;;;1.50;1.40;;;20.10;42.00;;;;;;5015723;28;20658;-72
2023/05/19 08:45:38;;;;;;;1.57;1.47;;;20.10;42.00;;;;;;5021537;28;20460;-72
2023/05/19 08:48:05;;;;;;;1.50;1.40;;;20.10;41.90;;;;;;5023202;28;20293;-71
2023/05/19 08:50:35;;;;;;;1.70;1.60;;;20.10;41.90;;;;;;5017579;28;20468;-71
2023/05/19 08:53:08;;;;;;;1.60;1.50;;;20.10;41.80;;;;;;5009244;28;20453;-71
2023/05/19 08:56:09;;;;;;;1.83;1.73;;;20.10;41.80;;;;;;5006960;28;20428;-72
2023/05/19 08:58:42;;;;;;;1.60;1.30;;;20.10;41.80;;;;;;5015526;28;20503;-71
2023/05/19 09:01:15;;;;;;;1.60;1.50;;;20.10;41.80;;;;;;5009491;28;20498;-72
2023/05/19 09:03:42;;;;;;;1.50;1.40;;;20.10;41.80;;;;;;5011404;28;20452;-72
2023/05/19 09:06:08;;;;;;;1.50;1.40;;;20.10;41.60;;;;;;5003387;28;20449;-72
2023/05/19 09:08:34;;;;;;;2.13;1.50;;;20.10;41.60;;;;;;5003905;28;20464;-72
2023/05/19 09:10:59;;;;;;;1.43;1.33;;;20.10;41.60;;;;;;4995902;28;20713;-72
2023/05/19 09:13:25;;;;;;;1.40;1.30;;;20.10;41.50;;;;;;4999118;28;20544;-72
2023/05/19 09:15:52;;;;;;;1.47;1.37;;;20.10;41.40;;;;;;5015061;28;20678;-72
2023/05/19 09:18:17;;;;;;;1.60;1.50;;;20.10;41.40;;;;;;5011003;28;20666;-72
2023/05/19 09:20:44;;;;;;;1.67;1.40;;;20.10;41.40;;;;;;5012482;28;20457;-72
2023/05/19 09:23:14;;;;;;;1.47;1.37;;;20.10;41.30;;;;;;5005686;28;20863;-71
2023/05/19 09:25:50;;;;;;;1.70;1.60;;;20.10;41.30;;;;;;5004164;28;21029;-72
2023/05/19 09:28:29;;;;;;;1.50;1.40;;;20.10;41.30;;;;;;5012422;28;20784;-72
2023/05/19 09:31:03;;;;;;;2.43;1.60;;;20.10;41.20;;;;;;4998307;28;20792;-72
2023/05/19 09:33:29;;;;;;;1.40;1.30;;;20.10;41.20;;;;;;5006442;28;20476;-72
2023/05/19 09:35:56;;;;;;;2.80;1.50;;;20.10;41.20;;;;;;5005567;28;20426;-72
2023/05/19 09:38:23;;;;;;;1.73;1.40;;;20.10;41.10;;;;;;5018635;28;20548;-72
2023/05/19 09:40:50;;;;;;;1.67;1.57;;;20.10;41.10;;;;;;5019120;28;20444;-72
2023/05/19 09:43:16;;;;;;;1.30;1.20;;;20.10;41.10;;;;;;5004594;28;20453;-72
2023/05/19 09:45:41;;;;;;;1.70;1.60;;;20.10;41.10;;;;;;4994469;28;20421;-72
2023/05/19 09:48:07;;;;;;;1.20;1.10;;;20.10;41.10;;;;;;5023059;28;20226;-72
2023/05/19 09:50:32;;;;;;;2.10;2.00;;;20.10;41.20;;;;;;4991609;28;20630;-72
2023/05/19 09:52:59;;;;;;;1.87;1.50;;;20.10;41.10;;;;;;5010410;28;20214;-72
2023/05/19 09:55:27;;;;;;;1.60;1.50;;;20.10;41.20;;;;;;5020642;28;20226;-72
2023/05/19 09:57:55;;;;;;;1.60;1.33;;;20.10;41.20;;;;;;5017181;28;20436;-72
2023/05/19 10:00:22;;;;;;;1.33;1.23;;;20.10;41.20;;;;;;5022915;28;20530;-72
2023/05/19 10:02:49;;;;;;;1.40;1.30;;;20.10;41.20;;;;;;5001897;28;20519;-72
2023/05/19 10:05:19;;;;;;;1.50;1.40;;;20.10;41.20;;;;;;5013966;28;20455;-72
2023/05/19 10:07:50;;;;;;;1.50;1.40;;;20.10;41.20;;;;;;5022320;28;20450;-72
2023/05/19 10:10:18;;;;;;;1.30;1.20;;;20.10;41.20;;;;;;5025238;28;20480;-72
2023/05/19 10:12:44;;;;;;;1.57;1.47;;;20.20;41.30;;;;;;5010179;28;20476;-72
2023/05/19 10:15:12;;;;;;;1.70;1.60;;;20.10;41.20;;;;;;5019395;28;20434;-72
2023/05/19 10:17:39;;;;;;;1.40;1.30;;;20.20;41.30;;;;;;5016133;28;20962;-72
2023/05/19 10:20:08;;;;;;;1.50;1.40;;;20.20;41.30;;;;;;5004047;28;20984;-72
2023/05/19 10:22:33;;;;;;;1.80;1.67;;;20.20;41.30;;;;;;5014790;28;20554;-72
2023/05/19 10:24:59;;;;;;;2.50;1.37;;;20.20;41.20;;;;;;5011380;28;20502;-72
2023/05/19 10:27:26;;;;;;;1.33;1.23;;;20.20;41.20;;;;;;4994731;28;20223;-72
2023/05/19 10:29:56;;;;;;;1.33;1.23;;;20.20;41.20;;;;;;5006103;28;20559;-72
2023/05/19 10:32:29;;;;;;;1.43;1.33;;;20.20;41.20;;;;;;5006094;28;20457;-72
2023/05/19 10:35:26;;;;;;;1.73;1.63;;;20.20;41.10;;;;;;5013850;28;20460;-72
2023/05/19 10:38:28;;;;;;;1.40;1.30;;;20.20;41.10;;;;;;5013035;28;20473;-73
2023/05/19 10:41:21;;;;;;;1.50;1.40;;;20.20;41.10;;;;;;5014786;28;20527;-72
2023/05/19 10:44:08;;;;;;;1.70;1.60;;;20.20;41.10;;;;;;5020865;28;20425;-72
2023/05/19 10:46:34;;;;;;;1.37;1.27;;;20.20;41.10;;;;;;5018378;28;20454;-72
2023/05/19 10:49:00;;;;;;;1.33;1.23;;;20.20;41.10;;;;;;5014074;28;20448;-73
2023/05/19 10:51:33;;;;;;;1.60;1.50;;;20.20;41.10;;;;;;5023908;28;20230;-72
2023/05/19 10:54:07;;;;;;;1.30;1.20;;;20.20;41.10;;;;;;5012606;28;20234;-72
2023/05/19 10:56:34;;;;;;;1.53;1.43;;;20.20;41.10;;;;;;5021063;28;20434;-72
2023/05/19 10:59:02;;;;;;;1.40;1.30;;;20.20;41.00;;;;;;4998032;28;20452;-71
2023/05/19 11:01:32;;;;;;;1.57;1.47;;;20.20;41.10;;;;;;5022230;28;20480;-73
2023/05/19 11:04:12;;;;;;;1.60;1.50;;;20.20;41.10;;;;;;5015027;28;20451;-71
2023/05/19 11:06:39;;;;;;;1.87;1.47;;;20.20;41.00;;;;;;5000009;28;20863;-72
2023/05/19 11:09:07;;;;;;;1.50;1.40;;;20.20;41.00;;;;;;4999717;28;20450;-72
2023/05/19 11:11:50;;;;;;;1.60;1.50;;;20.20;41.00;;;;;;5007719;28;20464;-72
2023/05/19 11:14:21;;;;;;;1.50;1.40;;;20.20;41.00;;;;;;5012827;28;20440;-72
2023/05/19 11:16:49;;;;;;;3.57;1.40;;;20.20;41.00;;;;;;5022546;28;20434;-72
2023/05/19 11:19:19;;;;;;;1.67;1.57;;;20.20;41.00;;;;;;5016741;28;20483;-73
2023/05/19 11:21:53;;;;;;;1.80;1.70;;;20.20;41.00;;;;;;5024766;28;20440;-72
2023/05/19 11:24:35;;;;;;;1.30;1.20;;;20.20;41.00;;;;;;5024193;28;21047;-72
2023/05/19 11:27:26;;;;;;;1.60;1.50;;;20.20;41.00;;;;;;5026566;28;20965;-72
2023/05/19 11:29:53;;;;;;;1.40;1.30;;;20.20;41.00;;;;;;5025653;28;20460;-72
2023/05/19 11:32:21;;;;;;;1.30;1.20;;;20.20;41.00;;;;;;5025025;28;20451;-74
2023/05/19 11:34:47;;;;;;;1.50;1.40;;;20.20;41.00;;;;;;5022423;28;20444;-72
2023/05/19 11:37:13;;;;;;;1.73;1.37;;;20.20;41.00;;;;;;5022034;28;20418;-72
2023/05/19 11:39:39;;;;;;;1.57;1.47;;;20.20;41.00;;;;;;5004353;28;20518;-72
2023/05/19 11:42:07;;;;;;;1.50;1.40;;;20.20;41.00;;;;;;5011604;28;20246;-72
2023/05/19 11:44:32;;;;;;;1.50;1.40;;;20.20;41.00;;;;;;5026211;28;20462;-72
2023/05/19 11:47:00;;;;;;;1.50;1.40;;;20.20;41.10;;;;;;5004103;28;20451;-72
2023/05/19 11:49:28;;;;;;;1.77;1.67;;;20.20;41.10;;;;;;4999447;28;20702;-72
2023/05/19 11:51:54;;;;;;;1.60;1.50;;;20.20;41.00;;;;;;4990487;28;20835;-73
2023/05/19 11:54:19;;;;;;;1.60;1.50;;;20.20;41.00;;;;;;4997156;28;20489;-73
2023/05/19 11:56:46;;;;;;;1.60;1.50;;;20.20;41.00;;;;;;5021261;28;20871;-72
2023/05/19 11:59:11;;;;;;;1.50;1.40;;;20.20;41.10;;;;;;5003657;28;20721;-71
2023/05/19 12:01:37;;;;;;;1.60;1.50;;;20.20;41.10;;;;;;5006441;28;20427;-72
2023/05/19 12:04:08;;;;;;;1.63;1.53;;;20.20;41.10;;;;;;4998874;28;20878;-72
2023/05/19 12:06:34;;;;;;;1.60;1.50;;;20.20;41.00;;;;;;5007700;28;20368;-72
2023/05/19 12:09:00;;;;;;;1.70;1.60;;;20.20;41.00;;;;;;5016221;28;20538;-72
2023/05/19 12:11:27;;;;;;;1.50;1.40;;;20.20;41.00;;;;;;5015309;28;20236;-72
2023/05/19 12:14:00;;;;;;;1.50;1.40;;;20.20;41.00;;;;;;5016074;28;20452;-73
2023/05/19 12:16:33;;;;;;;1.50;1.40;;;20.20;41.00;;;;;;5017488;28;20812;-72
2023/05/19 12:18:58;;;;;;;1.90;1.80;;;20.20;41.10;;;;;;5017390;28;21026;-73
2023/05/19 12:21:24;;;;;;;1.50;1.40;;;20.20;41.00;;;;;;5013445;28;20622;-72
2023/05/19 12:23:50;;;;;;;1.83;1.73;;;20.20;41.00;;;;;;5002504;28;20249;-73
2023/05/19 12:26:18;;;;;;;1.57;1.47;;;20.20;41.10;;;;;;5042891;28;20291;-72
2023/05/19 12:28:44;;;;;;;1.53;1.43;;;20.20;41.10;;;;;;5006550;28;20685;-71
2023/05/19 12:31:11;;;;;;;1.70;1.60;;;20.20;41.10;;;;;;5013254;28;20534;-72
2023/05/19 12:33:36;;;;;;;1.60;1.50;;;20.20;41.10;;;;;;5012865;28;20448;-72
2023/05/19 12:36:03;;;;;;;1.50;1.40;;;20.20;41.10;;;;;;5011813;28;20970;-72
2023/05/19 12:38:29;;;;;;;1.73;1.63;;;20.20;41.90;;;;;;4991430;28;20305;-72
2023/05/19 12:40:58;;;;;;;1.50;1.40;;;20.20;41.10;;;;;;5004651;28;20962;-73
2023/05/19 12:43:24;;;;;;;1.60;1.50;;;20.20;41.10;;;;;;5019554;28;20230;-72
2023/05/19 12:45:51;;;;;;;1.50;1.40;;;20.20;41.00;;;;;;5030304;28;20461;-73
2023/05/19 12:48:16;;;;;;;1.70;1.43;;;20.20;41.10;;;;;;5008880;28;20219;-72
2023/05/19 12:50:46;;;;;;;1.40;1.30;;;20.20;41.10;;;;;;5026010;28;20489;-72
2023/05/19 12:53:12;;;;;;;1.97;1.87;;;20.20;41.10;;;;;;5019910;28;20231;-72